Time;durP1;ratioP1;P1;durP2;ratioP2;P2;SDS_P1;SDS_P2;PMS_P1;PMS_P2;Temp;Humidity;BMP_temperature;BMP_pressure;BME280_temperature;BME280_humidity;BME280_pressure;Samples;Min_cycle;Max_cycle;Signal;HPM_P1;HPM_P2
2022/06/29 00:04:54;;;;;;;1.15;0.68;;;;;;;22.00;42.01;100058.25;10346448;28;20045;-67
2022/06/29 00:09:56;;;;;;;1.02;0.63;;;;;;;21.95;42.13;100048.03;10349306;28;20146;-69
2022/06/29 00:14:57;;;;;;;1.17;0.73;;;;;;;21.99;42.09;100054.72;10344823;28;20053;-67
2022/06/29 00:20:00;;;;;;;3.15;0.75;;;;;;;22.02;42.25;100050.75;10345898;28;20045;-70
2022/06/29 00:25:02;;;;;;;0.80;0.60;;;;;;;22.02;42.24;100035.34;10348721;28;20143;-69
2022/06/29 00:30:04;;;;;;;1.67;0.88;;;;;;;21.96;42.28;100032.59;10345458;28;20292;-67
2022/06/29 00:35:07;;;;;;;3.15;1.58;;;;;;;21.93;42.59;100024.88;10347443;28;20093;-67
2022/06/29 00:40:09;;;;;;;1.53;0.70;;;;;;;21.88;42.82;100023.59;10352532;28;20049;-68
2022/06/29 00:45:10;;;;;;;1.98;1.00;;;;;;;21.81;42.98;100033.59;10346576;28;20132;-68
2022/06/29 00:50:13;;;;;;;1.23;0.65;;;;;;;21.84;42.91;100027.78;10346519;28;20136;-68
2022/06/29 00:55:22;;;;;;;2.15;0.68;;;;;;;21.80;43.61;100023.81;10348294;28;20063;-68
2022/06/29 01:00:24;;;;;;;2.20;0.98;;;;;;;21.80;43.34;100021.09;10346125;28;24532;-68
2022/06/29 01:05:26;;;;;;;1.70;0.82;;;;;;;21.77;43.54;100017.94;10348228;28;20056;-67
2022/06/29 01:10:27;;;;;;;0.95;0.80;;;;;;;21.84;43.41;100025.06;10350566;28;20137;-68
2022/06/29 01:15:29;;;;;;;2.95;0.93;;;;;;;21.84;43.13;100022.38;10359123;28;20421;-68
2022/06/29 01:20:30;;;;;;;1.10;0.70;;;;;;;21.84;43.19;100027.78;10352334;28;20198;-68
2022/06/29 01:25:32;;;;;;;1.98;0.88;;;;;;;21.83;43.17;100023.41;10361124;28;20152;-67
2022/06/29 01:30:33;;;;;;;3.00;1.40;;;;;;;21.79;43.41;100013.16;10360258;28;20559;-69
2022/06/29 01:35:34;;;;;;;4.75;1.13;;;;;;;21.79;43.40;100014.00;10353942;28;20215;-68
2022/06/29 01:40:37;;;;;;;1.08;0.73;;;;;;;21.76;43.43;100014.41;10372016;28;20116;-67
2022/06/29 01:45:39;;;;;;;2.88;0.90;;;;;;;21.71;43.48;100011.47;10366486;28;20430;-69
2022/06/29 01:50:40;;;;;;;1.20;1.00;;;;;;;21.67;43.01;100000.19;10362226;28;20167;-68
2022/06/29 01:55:46;;;;;;;1.40;0.90;;;;;;;21.55;43.63;99996.41;10360853;28;20049;-68
2022/06/29 02:00:47;;;;;;;2.20;1.02;;;;;;;21.57;43.52;99997.03;10356959;28;20062;-69
2022/06/29 02:05:48;;;;;;;2.03;0.90;;;;;;;21.62;43.13;100001.84;10363713;28;20064;-71
2022/06/29 02:10:50;;;;;;;2.22;0.80;;;;;;;21.64;43.39;99988.94;10359496;28;20444;-70
2022/06/29 02:15:51;;;;;;;1.05;0.85;;;;;;;21.64;43.29;99981.66;10362027;28;20503;-70
2022/06/29 02:20:53;;;;;;;1.65;0.90;;;;;;;21.63;43.44;99984.56;10358986;28;20053;-70
2022/06/29 02:25:54;;;;;;;1.52;1.00;;;;;;;21.62;43.38;99985.59;10359743;28;20057;-70
2022/06/29 02:36:16;;;;;;;3.53;0.90;;;;;;;21.58;43.95;99978.94;10406128;28;20046;-70
2022/06/29 02:41:17;;;;;;;2.03;0.93;;;;;;;21.61;44.08;99978.53;10398620;28;20067;-69
2022/06/29 02:46:19;;;;;;;2.55;0.80;;;;;;;21.57;43.94;99977.25;10396706;28;20540;-68
2022/06/29 02:51:20;;;;;;;2.90;0.98;;;;;;;21.58;44.08;99989.75;10381180;28;20082;-68
2022/06/29 02:56:22;;;;;;;1.95;1.10;;;;;;;21.54;44.00;99976.63;10351557;28;20064;-68
2022/06/29 03:01:23;;;;;;;2.17;1.08;;;;;;;21.47;44.26;99972.19;10350162;28;20060;-68
2022/06/29 03:06:24;;;;;;;2.42;0.70;;;;;;;21.53;44.35;99977.66;10351053;28;20054;-69
2022/06/29 03:11:26;;;;;;;1.17;0.60;;;;;;;21.53;44.44;99966.81;10349225;28;20051;-69
2022/06/29 03:16:27;;;;;;;4.57;0.90;;;;;;;21.51;44.20;99968.06;10351163;28;20129;-68
2022/06/29 03:21:29;;;;;;;3.22;0.93;;;;;;;21.28;44.77;99963.75;10348713;28;20160;-68
2022/06/29 03:26:31;;;;;;;3.05;1.05;;;;;;;21.36;44.64;99976.28;10348363;28;20054;-69
2022/06/29 03:31:32;;;;;;;2.45;1.00;;;;;;;21.33;44.82;99965.84;10349396;28;20560;-69
2022/06/29 03:36:34;;;;;;;2.53;0.90;;;;;;;21.33;45.16;99969.41;10347867;28;20699;-68
2022/06/29 03:41:35;;;;;;;1.40;0.90;;;;;;;21.29;45.27;99970.03;10347573;28;20046;-69
2022/06/29 03:46:37;;;;;;;2.05;1.00;;;;;;;21.31;44.76;99968.75;10347467;28;20049;-69
2022/06/29 03:51:38;;;;;;;1.98;1.15;;;;;;;21.36;44.96;99970.88;10347948;28;20058;-67
2022/06/29 03:56:40;;;;;;;2.97;1.30;;;;;;;21.37;44.79;99970.66;10346783;28;20058;-68
2022/06/29 04:01:41;;;;;;;3.17;0.90;;;;;;;21.36;45.86;99969.00;10347124;28;20612;-68
2022/06/29 04:06:42;;;;;;;0.98;0.88;;;;;;;21.42;44.71;99970.06;10354436;28;20057;-68
2022/06/29 04:11:51;;;;;;;1.85;1.10;;;;;;;21.47;45.67;99966.78;10346910;28;20124;-67
2022/06/29 04:16:55;;;;;;;1.58;0.73;;;;;;;21.49;45.10;99959.28;10348214;28;20140;-68
2022/06/29 04:21:57;;;;;;;2.75;1.10;;;;;;;21.47;45.61;99951.34;10348264;28;20049;-68
2022/06/29 04:26:59;;;;;;;1.60;1.00;;;;;;;21.46;45.09;99951.56;10348605;28;20049;-68
2022/06/29 04:32:00;;;;;;;1.48;1.02;;;;;;;21.50;44.98;99953.69;10350859;28;20128;-68
2022/06/29 04:37:02;;;;;;;1.10;1.00;;;;;;;21.54;44.85;99946.84;10349413;28;20081;-68
2022/06/29 04:42:04;;;;;;;1.10;0.95;;;;;;;21.51;45.13;99947.25;10347748;28;20060;-69
2022/06/29 04:47:05;;;;;;;1.90;1.25;;;;;;;21.49;44.95;99949.28;10348310;28;20125;-68
2022/06/29 04:52:07;;;;;;;2.67;1.23;;;;;;;21.47;45.88;99945.13;10349093;28;20052;-68
2022/06/29 04:57:08;;;;;;;1.67;1.27;;;;;;;21.48;45.91;99953.03;10350281;28;20069;-69
2022/06/29 05:02:09;;;;;;;1.45;1.33;;;;;;;21.51;45.74;99952.66;10366714;28;20777;-68
2022/06/29 05:07:12;;;;;;;1.52;1.02;;;;;;;21.48;45.74;99947.63;10367344;28;20061;-69
2022/06/29 05:12:22;;;;;;;3.97;1.00;;;;;;;21.49;45.68;99951.97;10373967;28;20353;-68
2022/06/29 05:17:23;;;;;;;1.70;0.90;;;;;;;21.53;45.78;99933.50;10395162;28;20157;-68
2022/06/29 05:22:25;;;;;;;1.92;1.02;;;;;;;21.51;46.06;99925.59;10372816;28;20103;-68
2022/06/29 05:27:26;;;;;;;1.85;1.10;;;;;;;21.54;45.72;99925.19;10339627;28;20607;-68
2022/06/29 05:32:27;;;;;;;1.63;1.27;;;;;;;21.64;46.26;99923.94;10341451;28;20092;-68
2022/06/29 05:37:29;;;;;;;2.83;1.33;;;;;;;21.79;45.81;99938.16;10340698;28;20050;-69
2022/06/29 05:42:30;;;;;;;1.92;1.10;;;;;;;21.74;46.06;99935.22;10339966;28;20053;-68
2022/06/29 05:47:32;;;;;;;1.52;1.20;;;;;;;21.81;46.66;99938.78;10344563;28;20069;-68
2022/06/29 05:52:33;;;;;;;4.72;1.40;;;;;;;21.87;46.21;99940.69;10348277;28;20045;-69
2022/06/29 05:57:35;;;;;;;2.55;1.20;;;;;;;21.93;46.01;99933.56;10345392;28;20500;-70
2022/06/29 06:02:37;;;;;;;3.05;1.20;;;;;;;22.06;46.26;99927.34;10340061;28;20140;-71
2022/06/29 06:07:38;;;;;;;2.53;1.73;;;;;;;22.17;45.94;99926.75;10345723;28;20049;-69
2022/06/29 06:12:40;;;;;;;2.20;2.00;;;;;;;22.33;45.72;99928.22;10347117;28;20803;-68
2022/06/29 06:17:41;;;;;;;1.58;1.40;;;;;;;22.57;45.15;99945.75;10348842;28;20159;-68
2022/06/29 06:22:42;;;;;;;2.85;1.58;;;;;;;22.75;45.14;99938.84;10339699;28;20053;-69
2022/06/29 06:27:44;;;;;;;2.75;1.75;;;;;;;22.97;45.27;99934.00;10348913;28;20052;-67
2022/06/29 06:32:46;;;;;;;2.40;1.40;;;;;;;23.07;44.81;99936.25;10346479;28;20056;-67
2022/06/29 06:37:48;;;;;;;2.30;1.92;;;;;;;23.18;44.81;99934.78;10345993;28;20420;-67
2022/06/29 06:42:49;;;;;;;3.45;1.70;;;;;;;23.27;45.12;99944.38;10332549;28;20226;-67
2022/06/29 06:47:52;;;;;;;2.45;1.90;;;;;;;23.29;44.75;99953.16;10344399;28;20041;-70
2022/06/29 06:52:54;;;;;;;4.40;2.30;;;;;;;23.32;45.34;99952.72;10347145;28;20053;-69
2022/06/29 06:57:55;;;;;;;3.80;2.13;;;;;;;23.37;45.11;99952.06;10349437;28;20131;-68
2022/06/29 07:02:57;;;;;;;2.55;2.35;;;;;;;23.47;45.21;99960.59;10350104;28;20234;-69
2022/06/29 07:07:58;;;;;;;5.32;2.70;;;;;;;23.45;45.38;99958.09;10339657;28;20059;-69
2022/06/29 07:13:00;;;;;;;4.25;3.30;;;;;;;23.46;45.71;99954.34;10340491;28;20046;-68
2022/06/29 07:18:01;;;;;;;3.10;2.80;;;;;;;23.51;45.93;99941.97;10348197;28;20071;-69
2022/06/29 07:23:02;;;;;;;3.50;3.20;;;;;;;23.64;45.70;99934.63;10340149;28;20054;-69
2022/06/29 07:28:05;;;;;;;2.88;2.63;;;;;;;23.89;46.02;99939.28;10349880;28;21795;-72
2022/06/29 07:33:09;;;;;;;2.90;2.70;;;;;;;24.14;45.86;99935.75;10347188;28;20049;-71
2022/06/29 07:38:10;;;;;;;3.13;2.83;;;;;;;24.35;45.94;99929.97;10352767;28;20088;-72
2022/06/29 07:43:12;;;;;;;3.50;3.20;;;;;;;24.51;45.49;99928.56;10347695;28;20053;-72
2022/06/29 07:48:13;;;;;;;4.35;3.50;;;;;;;24.71;45.43;99922.13;10353447;28;20615;-71
2022/06/29 07:53:15;;;;;;;3.80;3.50;;;;;;;25.13;45.11;99924.19;10347445;28;20052;-72
2022/06/29 07:58:16;;;;;;;3.63;3.33;;;;;;;25.39;44.45;99918.44;10354134;28;20061;-70
2022/06/29 08:03:18;;;;;;;5.13;3.85;;;;;;;25.43;45.01;99918.00;10345526;28;20138;-72
2022/06/29 08:08:22;;;;;;;4.20;3.78;;;;;;;25.55;45.31;99917.00;10350507;28;20415;-73
2022/06/29 08:13:23;;;;;;;6.70;4.32;;;;;;;25.66;45.42;99909.91;10347475;28;20049;-73
2022/06/29 08:18:25;;;;;;;5.85;3.80;;;;;;;25.69;45.08;99917.63;10343394;28;20159;-73
2022/06/29 08:23:26;;;;;;;5.03;4.53;;;;;;;26.01;45.19;99909.22;10334259;28;20052;-73
2022/06/29 08:28:28;;;;;;;4.43;4.13;;;;;;;26.31;45.14;99918.41;10350550;28;20076;-72
2022/06/29 08:33:29;;;;;;;4.97;4.10;;;;;;;26.62;44.40;99911.78;10334382;28;20290;-73
2022/06/29 08:38:31;;;;;;;5.88;4.43;;;;;;;26.68;43.83;99910.00;10340932;28;20603;-71
2022/06/29 08:43:32;;;;;;;5.45;4.88;;;;;;;26.76;43.89;99907.75;10343186;28;20654;-70
2022/06/29 08:48:34;;;;;;;5.63;5.13;;;;;;;27.07;42.76;99900.22;10345977;28;20129;-70
2022/06/29 08:53:36;;;;;;;5.03;4.15;;;;;;;27.36;43.70;99897.56;10346992;28;20079;-71
2022/06/29 08:58:40;;;;;;;4.70;4.30;;;;;;;27.54;43.27;99903.91;10350237;28;20182;-71
2022/06/29 09:03:41;;;;;;;4.07;3.78;;;;;;;27.45;43.40;99900.75;10344885;28;20068;-70
2022/06/29 09:08:43;;;;;;;5.53;5.07;;;;;;;27.42;43.73;99899.31;10353105;28;20587;-71
2022/06/29 09:13:44;;;;;;;4.47;4.10;;;;;;;27.46;43.40;99896.94;10354647;28;20053;-71
2022/06/29 09:18:45;;;;;;;4.88;4.47;;;;;;;27.78;42.95;99891.78;10344145;28;20558;-72
2022/06/29 09:23:47;;;;;;;5.43;4.53;;;;;;;28.10;42.88;99888.50;10348504;28;20046;-70
2022/06/29 09:28:48;;;;;;;4.72;4.15;;;;;;;28.47;42.30;99879.78;10349307;28;20451;-69
2022/06/29 09:33:50;;;;;;;4.70;4.40;;;;;;;28.89;41.35;99887.53;10346154;28;20136;-70
2022/06/29 09:38:51;;;;;;;5.30;4.90;;;;;;;28.74;41.56;99890.06;10344874;28;20140;-70
2022/06/29 09:43:53;;;;;;;6.35;5.68;;;;;;;28.95;40.85;99890.34;10340523;28;20102;-70
2022/06/29 09:48:55;;;;;;;6.65;5.60;;;;;;;28.63;41.41;99891.84;10343428;28;20064;-69
2022/06/29 09:54:05;;;;;;;;;;;;;;;28.41;41.98;99878.06;10347407;28;22329;-71
2022/06/29 09:59:11;;;;;;;6.47;5.35;;;;;;;28.16;43.17;99879.31;10352673;28;20734;-70
2022/06/29 10:04:14;;;;;;;5.32;4.93;;;;;;;28.52;42.49;99871.63;10348948;28;20662;-70
2022/06/29 10:09:17;;;;;;;5.32;4.43;;;;;;;29.14;42.28;99872.50;10348718;28;20091;-71
2022/06/29 10:14:30;;;;;;;5.25;4.75;;;;;;;29.68;41.59;99871.72;10353415;28;20038;-70
2022/06/29 10:19:53;;;;;;;4.50;4.20;;;;;;;30.33;40.06;99871.75;10354487;28;20042;-71
2022/06/29 10:25:07;;;;;;;5.22;4.70;;;;;;;30.79;39.03;99868.44;10361431;28;20049;-70
2022/06/29 10:30:23;;;;;;;5.72;5.22;;;;;;;31.00;38.10;99851.00;10343061;28;20156;-72
2022/06/29 10:35:24;;;;;;;5.68;5.15;;;;;;;30.44;38.64;99851.50;10344674;28;20049;-72
2022/06/29 10:40:30;;;;;;;6.30;5.80;;;;;;;29.96;39.44;99851.41;10363867;28;20209;-71
2022/06/29 10:45:37;;;;;;;6.57;5.97;;;;;;;29.76;40.17;99845.75;10339819;28;20301;-71
2022/06/29 10:50:42;;;;;;;6.40;5.90;;;;;;;29.88;40.35;99842.88;10345312;28;20053;-71
2022/06/29 10:55:49;;;;;;;6.05;5.63;;;;;;;29.76;41.11;99834.78;10345752;28;20128;-69
2022/06/29 11:00:53;;;;;;;7.60;6.90;;;;;;;29.98;40.31;99831.94;10344529;28;20605;-71
2022/06/29 11:16:40;;;;;;;6.03;5.63;;;;;;;30.44;39.18;99818.56;10342542;28;20057;-72
2022/06/29 11:21:42;;;;;;;6.72;6.05;;;;;;;30.88;38.28;99819.31;10347074;28;20080;-71
2022/06/29 11:26:43;;;;;;;6.45;5.93;;;;;;;30.92;38.26;99813.00;10344662;28;20064;-72
2022/06/29 11:32:00;;;;;;;6.22;5.72;;;;;;;31.05;38.29;99813.63;10345929;28;20050;-71
2022/06/29 11:37:01;;;;;;;6.13;5.63;;;;;;;31.62;36.79;99814.63;10342838;28;20128;-72
2022/06/29 11:47:23;;;;;;;5.80;5.30;;;;;;;31.69;36.00;99810.50;10347723;28;19925;-70
2022/06/29 11:52:34;;;;;;;5.60;5.20;;;;;;;31.28;36.85;99796.66;10347607;28;20045;-72
2022/06/29 11:57:36;;;;;;;6.50;5.80;;;;;;;31.17;37.39;99795.00;10345910;28;20130;-72
2022/06/29 12:02:37;;;;;;;5.68;5.20;;;;;;;31.64;36.39;99796.72;10343842;28;20075;-72
2022/06/29 12:07:38;;;;;;;;;;;;;;;31.85;36.31;99788.47;10344398;28;20056;-72
2022/06/29 12:12:40;;;;;;;6.00;5.40;;;;;;;31.52;36.71;99776.88;10348947;28;19929;-72
2022/06/29 12:17:41;;;;;;;5.30;4.70;;;;;;;31.11;38.96;99776.84;10348246;28;20060;-72
2022/06/29 12:22:47;;;;;;;4.70;4.30;;;;;;;31.15;38.07;99767.78;10341466;28;20053;-72
2022/06/29 12:27:49;;;;;;;5.50;4.85;;;;;;;31.09;37.29;99773.53;10333285;28;20881;-73
2022/06/29 12:32:50;;;;;;;;;;;;;;;30.96;37.71;99759.19;10348120;28;20045;-72
2022/06/29 12:37:57;;;;;;;5.72;4.95;;;;;;;30.84;38.37;99756.69;10342509;28;19979;-71
2022/06/29 12:42:58;;;;;;;5.65;5.15;;;;;;;30.88;38.37;99765.19;10343170;28;20109;-70
2022/06/29 12:48:01;;;;;;;5.82;5.43;;;;;;;30.71;38.39;99761.84;10341106;28;20835;-72
2022/06/29 12:53:02;;;;;;;6.25;5.38;;;;;;;30.67;39.21;99754.16;10341519;28;20077;-71
2022/06/29 12:58:04;;;;;;;5.95;5.40;;;;;;;31.15;38.35;99750.44;10336017;28;20056;-71
2022/06/29 13:03:05;;;;;;;6.40;5.90;;;;;;;31.06;38.02;99757.56;10347349;28;20561;-72
2022/06/29 13:08:06;;;;;;;6.15;5.75;;;;;;;31.06;38.03;99741.09;10353291;28;20124;-72
2022/06/29 13:13:08;;;;;;;5.93;5.43;;;;;;;31.24;38.46;99732.31;10344099;28;20491;-73
2022/06/29 13:18:10;;;;;;;5.75;5.15;;;;;;;30.98;38.24;99729.53;10337750;28;21004;-73
2022/06/29 13:23:11;;;;;;;5.85;5.38;;;;;;;30.78;38.54;99733.03;10346671;28;20231;-72
2022/06/29 13:28:13;;;;;;;6.47;5.90;;;;;;;30.57;38.87;99723.91;10345700;28;20049;-72
2022/06/29 13:33:15;;;;;;;6.78;6.18;;;;;;;30.43;39.06;99728.22;10336509;28;20068;-71
2022/06/29 13:38:17;;;;;;;7.53;5.63;;;;;;;30.29;39.57;99720.44;10347968;28;20072;-71
2022/06/29 13:43:18;;;;;;;6.90;5.40;;;;;;;30.44;38.57;99721.66;10336017;28;20053;-72
2022/06/29 13:48:19;;;;;;;7.20;5.73;;;;;;;30.35;39.36;99712.25;10338197;28;20063;-72
2022/06/29 13:53:21;;;;;;;6.77;6.13;;;;;;;30.48;38.86;99711.78;10355511;28;20068;-72
2022/06/29 13:58:22;;;;;;;6.22;5.72;;;;;;;30.52;39.36;99712.88;10345818;28;20404;-72
2022/06/29 14:03:23;;;;;;;6.43;6.03;;;;;;;30.61;39.15;99715.94;10346863;28;20576;-71
2022/06/29 14:08:25;;;;;;;6.45;5.50;;;;;;;30.66;38.85;99705.81;10339961;28;20293;-71
2022/06/29 14:13:46;;;;;;;6.47;5.93;;;;;;;30.49;38.43;99711.53;10332008;28;20496;-71
2022/06/29 14:18:48;;;;;;;5.90;5.35;;;;;;;30.58;38.55;99702.75;10348610;28;20053;-72
2022/06/29 14:23:49;;;;;;;5.72;5.22;;;;;;;30.65;38.52;99698.66;10341272;28;20172;-72
2022/06/29 14:28:51;;;;;;;6.40;5.90;;;;;;;30.81;37.51;99696.78;10337179;28;20054;-68
2022/06/29 14:33:52;;;;;;;6.30;5.65;;;;;;;30.67;38.52;99699.22;10345165;28;20058;-70
2022/06/29 14:39:00;;;;;;;6.28;5.68;;;;;;;30.57;38.42;99692.88;10348828;28;20045;-67
2022/06/29 14:44:07;;;;;;;5.70;5.25;;;;;;;30.41;38.61;99694.75;10348658;28;20102;-69
2022/06/29 14:49:09;;;;;;;6.07;5.20;;;;;;;30.39;38.29;99694.16;10332840;28;20359;-72
2022/06/29 14:54:11;;;;;;;6.23;5.67;;;;;;;30.20;38.74;99686.38;10350124;28;20054;-70
2022/06/29 14:59:12;;;;;;;6.05;5.55;;;;;;;30.02;38.88;99686.84;10345467;28;20042;-72
2022/06/29 15:04:16;;;;;;;4.80;4.40;;;;;;;30.14;39.04;99681.97;10341075;28;20057;-70
2022/06/29 15:09:17;;;;;;;6.07;5.38;;;;;;;30.25;38.29;99683.69;10343144;28;20234;-71
2022/06/29 15:14:19;;;;;;;5.93;5.45;;;;;;;30.02;38.93;99676.69;10342212;28;20060;-72
2022/06/29 15:19:20;;;;;;;5.67;5.27;;;;;;;29.99;39.46;99668.19;10339564;28;20049;-69
2022/06/29 15:24:25;;;;;;;6.18;5.63;;;;;;;30.14;39.12;99669.06;10340119;28;20053;-68
2022/06/29 15:29:27;;;;;;;6.57;5.97;;;;;;;30.13;38.99;99670.19;10345885;28;20811;-69
2022/06/29 15:39:48;;;;;;;5.55;5.13;;;;;;;30.05;39.37;99661.63;10347428;28;20185;-70
2022/06/29 15:44:50;;;;;;;5.30;4.80;;;;;;;30.00;39.23;99664.34;10351959;28;20061;-70
2022/06/29 15:49:51;;;;;;;5.93;5.50;;;;;;;30.04;38.98;99652.56;10342669;28;20182;-73
2022/06/29 16:00:18;;;;;;;5.97;5.40;;;;;;;29.96;38.78;99642.09;10345262;28;20318;-70
2022/06/29 16:05:19;;;;;;;5.45;5.05;;;;;;;29.85;39.23;99635.75;10330183;28;20045;-68
2022/06/29 16:10:21;;;;;;;5.13;4.80;;;;;;;29.92;39.53;99635.47;10336678;28;20076;-71
2022/06/29 16:15:23;;;;;;;5.15;4.65;;;;;;;29.88;38.71;99635.19;10337746;28;20151;-72
2022/06/29 16:20:24;;;;;;;6.37;5.13;;;;;;;29.73;38.36;99618.66;10339157;28;20056;-72
2022/06/29 16:25:26;;;;;;;4.83;4.43;;;;;;;29.62;39.15;99623.25;10343950;28;20049;-71
2022/06/29 16:30:27;;;;;;;6.10;5.50;;;;;;;29.55;39.64;99625.41;10348361;28;20057;-72
2022/06/29 16:35:28;;;;;;;5.00;4.60;;;;;;;29.53;40.67;99620.19;10344782;28;20053;-72
2022/06/29 16:40:30;;;;;;;5.00;4.60;;;;;;;29.48;41.25;99622.88;10335357;28;20067;-74
2022/06/29 16:45:31;;;;;;;5.47;4.97;;;;;;;29.39;41.52;99621.72;10327035;28;20088;-72
2022/06/29 16:50:32;;;;;;;6.90;4.10;;;;;;;29.23;42.55;99618.88;10344123;28;20673;-76
2022/06/29 16:55:34;;;;;;;4.70;4.20;;;;;;;29.06;43.92;99626.38;10354762;28;20141;-73
2022/06/29 17:00:35;;;;;;;4.93;4.30;;;;;;;29.04;44.42;99631.28;10346082;28;20096;-75
2022/06/29 17:05:37;;;;;;;4.47;4.07;;;;;;;29.06;44.41;99629.09;10340454;28;20216;-73
2022/06/29 17:10:38;;;;;;;4.53;4.13;;;;;;;29.00;44.85;99638.38;10340411;28;20097;-72
2022/06/29 17:15:41;;;;;;;4.55;4.15;;;;;;;28.79;45.25;99632.69;10345780;28;20049;-73
2022/06/29 17:20:43;;;;;;;4.40;4.00;;;;;;;28.72;45.77;99635.66;10342884;28;20719;-73
2022/06/29 17:25:44;;;;;;;4.18;3.83;;;;;;;28.69;45.30;99624.38;10347743;28;20068;-73
2022/06/29 17:30:45;;;;;;;5.10;4.20;;;;;;;28.67;45.50;99632.84;10344053;28;20049;-73
2022/06/29 17:35:47;;;;;;;5.07;4.10;;;;;;;28.59;45.50;99629.75;10330978;28;20106;-72
2022/06/29 17:40:54;;;;;;;4.97;4.35;;;;;;;28.52;45.89;99625.28;10333582;28;20057;-70
2022/06/29 17:45:55;;;;;;;4.55;4.15;;;;;;;28.41;46.23;99623.53;10337697;28;20557;-71
2022/06/29 17:50:57;;;;;;;5.10;4.67;;;;;;;28.28;46.40;99622.00;10337101;28;20487;-71
2022/06/29 17:55:58;;;;;;;4.60;4.30;;;;;;;28.21;46.39;99635.91;10345025;28;20146;-71
2022/06/29 18:00:59;;;;;;;4.57;4.03;;;;;;;28.14;46.43;99628.97;10335483;28;21367;-72
2022/06/29 18:06:01;;;;;;;5.63;4.30;;;;;;;27.97;46.74;99624.38;10336429;28;20045;-72
2022/06/29 18:11:02;;;;;;;4.30;3.85;;;;;;;27.94;47.10;99635.81;10342864;28;20135;-72
2022/06/29 18:16:24;;;;;;;5.30;4.28;;;;;;;27.84;47.43;99622.81;10346470;28;20053;-73
2022/06/29 18:21:25;;;;;;;5.40;4.55;;;;;;;27.77;47.13;99619.44;10353955;28;20196;-72
2022/06/29 18:26:27;;;;;;;4.97;4.35;;;;;;;27.75;47.13;99627.06;10352697;28;20130;-72
2022/06/29 18:31:29;;;;;;;4.28;3.88;;;;;;;27.72;47.33;99624.03;10338907;28;20063;-72
2022/06/29 18:36:32;;;;;;;5.45;4.95;;;;;;;27.68;47.41;99623.69;10335865;28;20074;-71
2022/06/29 18:41:34;;;;;;;;;;;;;;;27.62;47.48;99619.22;10343049;28;20054;-70
2022/06/29 18:46:35;;;;;;;4.70;4.10;;;;;;;27.54;46.95;99616.94;10348920;28;19925;-68
2022/06/29 18:51:37;;;;;;;4.93;4.30;;;;;;;27.38;47.96;99622.16;10335212;28;20455;-69
2022/06/29 18:56:39;;;;;;;5.28;4.60;;;;;;;27.20;48.39;99619.66;10338947;28;20064;-69
2022/06/29 19:01:40;;;;;;;4.65;4.35;;;;;;;27.14;48.85;99622.31;10340075;28;20046;-69
2022/06/29 19:06:42;;;;;;;6.10;4.60;;;;;;;27.12;49.18;99624.44;10347729;28;20564;-69
2022/06/29 19:11:50;;;;;;;5.00;4.60;;;;;;;27.07;49.69;99618.91;10345916;28;20554;-70
2022/06/29 19:16:52;;;;;;;5.45;4.93;;;;;;;27.03;49.92;99619.66;10345729;28;20592;-70
2022/06/29 19:21:54;;;;;;;6.53;4.80;;;;;;;26.93;50.37;99609.38;10345305;28;20659;-68
2022/06/29 19:26:56;;;;;;;7.17;4.97;;;;;;;26.87;50.53;99613.09;10348000;28;20045;-69
2022/06/29 19:31:57;;;;;;;4.63;4.30;;;;;;;26.78;50.34;99618.97;10353258;28;20088;-70
2022/06/29 19:36:58;;;;;;;5.72;5.22;;;;;;;26.76;50.82;99625.75;10364064;28;20057;-69
2022/06/29 19:42:00;;;;;;;8.45;5.22;;;;;;;26.70;50.94;99627.56;10354113;28;20045;-71
2022/06/29 19:47:02;;;;;;;5.35;4.80;;;;;;;26.54;51.53;99633.78;10347275;28;20122;-70
2022/06/29 19:52:04;;;;;;;6.68;5.57;;;;;;;26.49;52.84;99636.41;10344848;28;20716;-71
2022/06/29 19:57:05;;;;;;;5.90;5.40;;;;;;;26.35;53.39;99636.69;10339587;28;20056;-68
2022/06/29 20:02:07;;;;;;;7.53;5.60;;;;;;;26.16;53.57;99648.84;10338777;28;20046;-72
2022/06/29 20:07:08;;;;;;;5.55;5.10;;;;;;;26.19;53.15;99646.47;10341941;28;20114;-71
2022/06/29 20:12:10;;;;;;;7.13;5.65;;;;;;;26.23;53.36;99665.91;10334033;28;20524;-72
2022/06/29 20:17:11;;;;;;;7.13;5.82;;;;;;;26.19;51.04;99664.72;10342863;28;20139;-71
2022/06/29 20:22:13;;;;;;;7.22;5.63;;;;;;;26.17;51.62;99667.69;10354091;28;20132;-72
2022/06/29 20:27:16;;;;;;;7.35;5.82;;;;;;;26.06;52.39;99660.34;10351033;28;20045;-71
2022/06/29 20:32:18;;;;;;;5.50;5.00;;;;;;;26.02;52.57;99667.38;10345772;28;20109;-71
2022/06/29 20:37:19;;;;;;;5.53;5.03;;;;;;;25.97;52.51;99668.03;10344155;28;20272;-71
2022/06/29 20:42:21;;;;;;;5.85;5.25;;;;;;;25.92;52.55;99665.22;10345643;28;20060;-71
2022/06/29 20:47:22;;;;;;;6.00;5.40;;;;;;;25.85;53.72;99673.53;10348089;28;20138;-70
2022/06/29 20:52:24;;;;;;;5.63;5.20;;;;;;;25.77;54.62;99682.88;10344990;28;20060;-71
2022/06/29 20:57:25;;;;;;;5.70;5.10;;;;;;;25.67;54.95;99671.75;10344945;28;20056;-72
2022/06/29 21:02:27;;;;;;;6.28;5.78;;;;;;;25.63;54.92;99673.31;10341216;28;20057;-71
2022/06/29 21:07:29;;;;;;;5.45;4.90;;;;;;;25.57;55.23;99679.69;10351374;28;20057;-71
2022/06/29 21:12:31;;;;;;;5.70;5.22;;;;;;;25.54;54.89;99685.63;10345828;28;20060;-71
2022/06/29 21:17:33;;;;;;;6.90;4.97;;;;;;;25.57;55.39;99682.44;10349486;28;20042;-71
2022/06/29 21:22:54;;;;;;;5.28;4.88;;;;;;;25.54;56.10;99691.88;10345676;28;20135;-70
2022/06/29 21:27:56;;;;;;;6.28;5.68;;;;;;;25.47;56.05;99693.88;10341116;28;20125;-70
2022/06/29 21:32:57;;;;;;;6.40;5.30;;;;;;;25.47;56.26;99701.25;10341811;28;20861;-71
2022/06/29 21:37:59;;;;;;;5.63;5.13;;;;;;;25.48;56.65;99694.75;10345466;28;20842;-74
2022/06/29 21:43:00;;;;;;;5.88;5.38;;;;;;;25.44;57.10;99685.38;10347063;28;20073;-73
2022/06/29 21:48:01;;;;;;;6.25;5.03;;;;;;;25.37;57.46;99694.50;10351050;28;20049;-71
2022/06/29 21:53:03;;;;;;;5.93;5.40;;;;;;;25.29;57.73;99683.88;10351965;28;20149;-70
2022/06/29 21:58:04;;;;;;;5.40;4.90;;;;;;;25.29;57.58;99689.34;10349380;28;20049;-70
2022/06/29 22:03:05;;;;;;;5.97;5.38;;;;;;;25.23;58.51;99687.56;10350253;28;20136;-70
2022/06/29 22:08:07;;;;;;;9.20;5.75;;;;;;;25.23;58.69;99684.81;10350812;28;20045;-71
2022/06/29 22:13:08;;;;;;;5.80;5.20;;;;;;;25.21;58.99;99684.25;10350004;28;20125;-71
2022/06/29 22:18:10;;;;;;;7.00;6.25;;;;;;;25.17;59.60;99688.50;10348231;28;20069;-71
2022/06/29 22:23:12;;;;;;;5.80;5.30;;;;;;;25.11;59.84;99694.88;10350124;28;20142;-71
2022/06/29 22:28:15;;;;;;;7.05;5.75;;;;;;;25.07;61.45;99697.22;10349032;28;20050;-71
2022/06/29 22:33:18;;;;;;;6.40;5.95;;;;;;;24.98;61.99;99688.56;10349407;28;20088;-71
2022/06/29 22:38:20;;;;;;;6.88;6.28;;;;;;;24.97;62.27;99708.69;10346261;28;20041;-71
2022/06/29 22:43:21;;;;;;;6.15;5.65;;;;;;;24.97;62.55;99714.13;10350003;28;20857;-70
2022/06/29 22:48:22;;;;;;;7.05;6.55;;;;;;;24.93;62.64;99715.63;10353308;28;20056;-71
2022/06/29 22:53:24;;;;;;;8.60;6.95;;;;;;;24.87;63.05;99703.78;10352289;28;20054;-72
2022/06/29 22:58:26;;;;;;;6.97;6.28;;;;;;;24.87;62.96;99713.84;10347246;28;20103;-72
2022/06/29 23:03:28;;;;;;;7.22;6.47;;;;;;;24.82;63.53;99724.59;10351392;28;20528;-71
2022/06/29 23:08:30;;;;;;;5.75;5.25;;;;;;;24.79;63.30;99725.06;10348308;28;20070;-72
2022/06/29 23:13:31;;;;;;;7.40;6.32;;;;;;;24.72;63.96;99716.16;10347672;28;20116;-72
2022/06/29 23:18:33;;;;;;;6.88;6.18;;;;;;;24.68;63.96;99715.75;10350165;28;20091;-71
2022/06/29 23:23:34;;;;;;;7.65;6.50;;;;;;;24.62;64.57;99720.25;10347791;28;20053;-71
2022/06/29 23:28:35;;;;;;;6.88;6.07;;;;;;;24.55;65.25;99711.31;10355446;28;20129;-71
2022/06/29 23:33:37;;;;;;;6.68;6.07;;;;;;;24.47;65.52;99719.75;10361828;28;20277;-71
2022/06/29 23:38:39;;;;;;;7.38;6.55;;;;;;;24.38;65.76;99721.13;10350131;28;20048;-70
2022/06/29 23:43:40;;;;;;;7.07;6.50;;;;;;;24.40;66.47;99740.81;10339260;28;20132;-71
2022/06/29 23:48:41;;;;;;;6.53;6.03;;;;;;;24.33;66.47;99730.81;10346407;28;20076;-71
2022/06/29 23:53:43;;;;;;;8.50;6.65;;;;;;;24.32;67.00;99733.75;10346535;28;20184;-71
2022/06/29 23:58:44;;;;;;;6.60;6.07;;;;;;;24.27;66.97;99720.00;10350170;28;20164;-71
